Time;durP1;ratioP1;P1;durP2;ratioP2;P2;SDS_P1;SDS_P2;PMS_P1;PMS_P2;Temp;Humidity;BMP_temperature;BMP_pressure;BME280_temperature;BME280_humidity;BME280_pressure;Samples;Min_cycle;Max_cycle;Signal;HPM_P1;HPM_P2
2022/01/02 00:00:06;;;;;;;4.17;2.63;;;11.00;99.90;;;;;;5024319;28;20174;-79
2022/01/02 00:02:33;;;;;;;3.87;2.40;;;11.00;99.90;;;;;;5021519;28;20184;-79
2022/01/02 00:05:15;;;;;;;2.93;2.10;;;11.00;99.90;;;;;;5024452;28;20639;-79
2022/01/02 00:07:53;;;;;;;4.73;2.70;;;11.00;99.90;;;;;;5023754;28;20634;-79
2022/01/02 00:10:21;;;;;;;5.33;2.33;;;11.00;99.90;;;;;;5024374;28;20165;-79
2022/01/02 00:12:56;;;;;;;5.57;2.27;;;11.00;99.90;;;;;;5025120;28;20169;-79
2022/01/02 00:15:24;;;;;;;3.37;2.17;;;11.00;99.90;;;;;;5022761;28;20254;-78
2022/01/02 00:17:52;;;;;;;4.57;2.40;;;11.00;99.90;;;;;;5019259;28;20173;-78
2022/01/02 00:20:31;;;;;;;3.93;2.57;;;11.00;99.90;;;;;;5021127;28;20177;-78
2022/01/02 00:22:59;;;;;;;5.70;2.73;;;11.00;99.90;;;;;;5022784;28;20639;-78
2022/01/02 00:25:29;;;;;;;4.53;2.60;;;11.00;99.90;;;;;;5021884;28;20212;-78
2022/01/02 00:27:56;;;;;;;3.40;2.40;;;10.90;99.90;;;;;;5021222;28;20172;-78
2022/01/02 00:30:21;;;;;;;4.70;2.33;;;10.90;99.90;;;;;;5021379;28;20204;-78
2022/01/02 00:32:47;;;;;;;4.27;2.53;;;11.00;99.90;;;;;;5019992;28;20192;-78
2022/01/02 00:35:13;;;;;;;4.87;2.20;;;10.90;99.90;;;;;;5022366;28;20231;-78
2022/01/02 00:37:40;;;;;;;3.63;2.40;;;11.00;99.90;;;;;;5021632;28;20625;-78
2022/01/02 00:40:06;;;;;;;4.40;2.50;;;10.90;99.90;;;;;;5021939;28;20266;-78
2022/01/02 00:42:39;;;;;;;5.43;2.33;;;10.90;99.90;;;;;;5021642;28;20185;-78
2022/01/02 00:45:07;;;;;;;3.13;2.53;;;11.00;99.90;;;;;;5022220;28;20193;-78
2022/01/02 00:47:36;;;;;;;5.13;2.60;;;10.90;99.90;;;;;;5021918;28;20193;-79
2022/01/02 00:50:11;;;;;;;3.40;2.60;;;10.90;99.90;;;;;;5022341;28;20212;-79
2022/01/02 00:52:47;;;;;;;4.80;3.03;;;10.90;99.90;;;;;;5021546;28;20196;-78
2022/01/02 00:55:19;;;;;;;3.13;2.27;;;11.00;99.90;;;;;;5022285;28;20203;-78
2022/01/02 00:58:01;;;;;;;5.00;2.43;;;11.00;99.90;;;;;;5021708;28;20215;-79
2022/01/02 01:00:28;;;;;;;4.23;2.53;;;11.00;99.90;;;;;;5020245;28;20169;-79
2022/01/02 01:02:56;;;;;;;4.07;2.80;;;10.90;99.90;;;;;;5020191;28;20587;-79
2022/01/02 01:05:30;;;;;;;5.07;3.00;;;10.90;99.90;;;;;;5021111;28;20181;-78
2022/01/02 01:07:59;;;;;;;3.87;2.63;;;11.00;99.90;;;;;;5021664;28;20642;-78
2022/01/02 01:10:28;;;;;;;4.57;2.90;;;11.00;99.90;;;;;;5021727;28;20189;-78
2022/01/02 01:12:56;;;;;;;4.77;2.90;;;11.00;99.90;;;;;;5022948;28;20212;-78
2022/01/02 01:15:23;;;;;;;4.97;3.10;;;11.00;99.90;;;;;;5021590;28;20268;-78
2022/01/02 01:17:52;;;;;;;3.57;2.70;;;11.00;99.90;;;;;;5029070;28;20260;-77
2022/01/02 01:20:18;;;;;;;4.40;2.90;;;11.00;99.90;;;;;;5035145;28;20185;-78
2022/01/02 01:22:45;;;;;;;5.93;2.73;;;11.00;99.90;;;;;;5034146;28;20181;-78
2022/01/02 01:25:15;;;;;;;3.33;2.83;;;11.00;99.90;;;;;;5035518;28;20165;-78
2022/01/02 01:27:40;;;;;;;4.87;2.67;;;11.00;99.90;;;;;;5027734;28;20173;-78
2022/01/02 01:30:07;;;;;;;4.80;2.80;;;11.00;99.90;;;;;;5022746;28;20176;-79
2022/01/02 01:32:33;;;;;;;3.80;2.67;;;11.00;99.90;;;;;;5016153;28;20659;-78
2022/01/02 01:34:58;;;;;;;5.03;2.77;;;11.00;99.90;;;;;;5017971;28;20200;-79
2022/01/02 01:37:24;;;;;;;4.93;3.23;;;11.00;99.90;;;;;;5017183;28;20217;-79
2022/01/02 01:39:49;;;;;;;4.70;3.03;;;11.00;99.90;;;;;;5018091;28;20173;-78
2022/01/02 01:42:25;;;;;;;4.53;2.77;;;11.00;99.90;;;;;;5018871;28;20173;-78
2022/01/02 01:45:04;;;;;;;4.83;3.00;;;11.10;99.90;;;;;;5019470;28;20164;-79
2022/01/02 01:47:30;;;;;;;8.27;2.80;;;11.00;99.90;;;;;;5017739;28;20665;-79
2022/01/02 01:49:55;;;;;;;3.20;2.30;;;11.10;99.90;;;;;;5018904;28;20203;-79
2022/01/02 01:52:21;;;;;;;5.90;2.90;;;11.00;99.90;;;;;;5019824;28;20173;-79
2022/01/02 01:54:46;;;;;;;5.53;3.10;;;11.00;99.90;;;;;;5018607;28;20203;-79
2022/01/02 01:57:12;;;;;;;4.00;2.43;;;11.00;99.90;;;;;;5018475;28;20753;-79
2022/01/02 01:59:38;;;;;;;4.67;3.03;;;11.00;99.90;;;;;;5018866;28;20169;-79
2022/01/02 02:02:03;;;;;;;5.10;2.80;;;11.00;99.90;;;;;;5019547;28;20279;-79
2022/01/02 02:04:29;;;;;;;3.57;2.73;;;11.00;99.90;;;;;;5019355;28;20176;-78
2022/01/02 02:06:56;;;;;;;5.13;2.83;;;11.00;99.90;;;;;;5016023;28;20197;-79
2022/01/02 02:09:26;;;;;;;5.23;3.03;;;11.00;99.90;;;;;;5017618;28;20166;-79
2022/01/02 02:11:58;;;;;;;3.70;2.60;;;11.00;99.90;;;;;;5016637;28;20271;-79
2022/01/02 02:14:24;;;;;;;3.60;3.00;;;11.00;99.90;;;;;;5016480;28;20558;-78
2022/01/02 02:16:50;;;;;;;4.03;2.67;;;11.00;99.90;;;;;;5015771;28;20193;-79
2022/01/02 02:19:16;;;;;;;3.67;2.90;;;11.00;99.90;;;;;;5017904;28;20169;-79
2022/01/02 02:21:41;;;;;;;5.50;3.13;;;11.00;99.90;;;;;;5016135;28;20246;-79
2022/01/02 02:24:10;;;;;;;5.30;3.43;;;11.00;99.90;;;;;;5017006;28;20603;-79
2022/01/02 02:26:37;;;;;;;5.43;2.90;;;11.00;99.90;;;;;;5016345;28;20204;-79
2022/01/02 02:29:04;;;;;;;5.60;3.00;;;11.00;99.90;;;;;;5016198;28;20643;-78
2022/01/02 02:31:30;;;;;;;8.00;3.37;;;11.00;99.90;;;;;;5016994;28;20173;-78
2022/01/02 02:33:56;;;;;;;6.87;3.10;;;11.00;99.90;;;;;;5016672;28;20238;-79
2022/01/02 02:36:21;;;;;;;6.93;2.80;;;11.00;99.90;;;;;;5015911;28;20197;-79
2022/01/02 02:38:47;;;;;;;4.93;3.50;;;11.00;99.90;;;;;;5017702;28;20661;-79
2022/01/02 02:41:13;;;;;;;3.73;3.20;;;11.00;99.90;;;;;;5016061;28;20710;-79
2022/01/02 02:43:46;;;;;;;7.07;3.20;;;11.00;99.90;;;;;;5016782;28;20180;-79
2022/01/02 02:49:05;;;;;;;4.47;2.67;;;11.00;99.90;;;;;;5022048;28;20651;-79
2022/01/02 02:53:57;;;;;;;6.40;3.03;;;11.00;99.90;;;;;;5023156;28;20244;-79
2022/01/02 02:56:26;;;;;;;4.10;2.60;;;11.00;99.90;;;;;;5022477;28;20232;-78
2022/01/02 02:58:58;;;;;;;5.17;2.67;;;11.00;99.90;;;;;;5019447;28;20179;-79
2022/01/02 03:01:25;;;;;;;4.07;2.60;;;11.00;99.90;;;;;;5020564;28;20165;-79
2022/01/02 03:03:51;;;;;;;5.23;3.03;;;11.00;99.90;;;;;;5019822;28;20658;-79
2022/01/02 03:06:17;;;;;;;6.07;3.00;;;11.00;99.90;;;;;;5021997;28;20200;-79
2022/01/02 03:08:45;;;;;;;5.37;3.33;;;11.00;99.90;;;;;;5022327;28;20173;-78
2022/01/02 03:11:16;;;;;;;8.50;3.17;;;11.00;99.90;;;;;;5021242;28;20201;-79
2022/01/02 03:13:44;;;;;;;4.83;3.20;;;11.00;99.90;;;;;;5019682;28;20204;-79
2022/01/02 03:16:10;;;;;;;6.70;3.17;;;11.00;99.90;;;;;;5021068;28;20207;-79
2022/01/02 03:18:36;;;;;;;4.23;3.03;;;11.00;99.90;;;;;;5020843;28;20181;-79
2022/01/02 03:21:01;;;;;;;6.23;2.60;;;11.00;99.90;;;;;;5020890;28;20260;-79
2022/01/02 03:23:27;;;;;;;5.40;2.90;;;10.90;99.90;;;;;;5020791;28;20200;-79
2022/01/02 03:25:53;;;;;;;5.97;3.20;;;10.90;99.90;;;;;;5020291;28;20259;-78
2022/01/02 03:28:18;;;;;;;4.00;2.47;;;10.90;99.90;;;;;;5021911;28;20536;-79
2022/01/02 03:30:44;;;;;;;4.90;3.10;;;10.90;99.90;;;;;;5020568;28;20189;-79
2022/01/02 03:33:10;;;;;;;5.17;2.87;;;10.90;99.90;;;;;;5020652;28;20544;-79
2022/01/02 03:35:35;;;;;;;3.77;2.73;;;10.90;99.90;;;;;;5018501;28;20784;-79
2022/01/02 03:38:02;;;;;;;6.80;2.83;;;10.90;99.90;;;;;;5020740;28;20200;-79
2022/01/02 03:40:27;;;;;;;5.17;3.10;;;10.90;99.90;;;;;;5019748;28;20177;-79
2022/01/02 03:42:53;;;;;;;6.30;3.03;;;10.80;99.90;;;;;;5018279;28;20188;-79
2022/01/02 03:45:19;;;;;;;4.17;2.90;;;10.90;99.90;;;;;;5019567;28;20215;-79
2022/01/02 03:47:45;;;;;;;6.30;3.20;;;10.80;99.90;;;;;;5018781;28;20165;-79
2022/01/02 03:50:11;;;;;;;6.87;3.50;;;10.80;99.90;;;;;;5019198;28;20181;-79
2022/01/02 03:52:37;;;;;;;3.13;2.43;;;10.80;99.90;;;;;;5017958;28;20273;-79
2022/01/02 03:55:03;;;;;;;7.67;2.83;;;10.80;99.90;;;;;;5017960;28;20251;-79
2022/01/02 03:57:29;;;;;;;5.57;3.17;;;10.80;99.90;;;;;;5019198;28;20177;-79
2022/01/02 03:59:54;;;;;;;5.33;3.03;;;10.80;99.90;;;;;;5017728;28;20251;-79
2022/01/02 04:02:20;;;;;;;3.90;2.80;;;10.80;99.90;;;;;;5017642;28;20173;-79
2022/01/02 04:04:45;;;;;;;8.33;3.03;;;10.80;99.90;;;;;;5019282;28;20538;-79
2022/01/02 04:07:11;;;;;;;6.30;3.33;;;10.70;99.90;;;;;;5017670;28;20201;-79
2022/01/02 04:09:37;;;;;;;6.13;2.97;;;10.80;99.90;;;;;;5019304;28;20169;-79
2022/01/02 04:12:02;;;;;;;8.27;3.13;;;10.80;99.90;;;;;;5018321;28;20177;-79
2022/01/02 04:14:28;;;;;;;6.83;3.40;;;10.70;99.90;;;;;;5017406;28;20236;-79
2022/01/02 04:16:53;;;;;;;5.83;3.00;;;10.70;99.90;;;;;;5018904;28;20205;-79
2022/01/02 04:19:19;;;;;;;6.23;3.40;;;10.80;99.90;;;;;;5016292;28;20192;-79
2022/01/02 04:21:45;;;;;;;6.33;2.97;;;10.70;99.90;;;;;;5016269;28;20183;-79
2022/01/02 04:24:10;;;;;;;9.00;3.30;;;10.70;99.90;;;;;;5017842;28;20650;-79
2022/01/02 04:26:36;;;;;;;6.00;3.50;;;10.70;99.90;;;;;;5015253;28;20212;-79
2022/01/02 04:29:03;;;;;;;7.93;3.60;;;10.70;99.90;;;;;;5016647;28;20188;-79
2022/01/02 04:31:29;;;;;;;6.13;3.03;;;10.70;99.90;;;;;;5014592;28;20185;-78
2022/01/02 04:33:54;;;;;;;11.13;3.53;;;10.70;99.90;;;;;;5016301;28;20177;-80
2022/01/02 04:36:20;;;;;;;4.40;3.33;;;10.70;99.90;;;;;;5016415;28;20671;-79
2022/01/02 04:38:45;;;;;;;5.17;3.40;;;10.70;99.90;;;;;;5014653;28;20172;-80
2022/01/02 04:41:11;;;;;;;7.30;4.30;;;10.70;99.90;;;;;;5016277;28;20219;-80
2022/01/02 04:43:37;;;;;;;6.00;3.90;;;10.70;99.90;;;;;;5014937;28;20200;-79
2022/01/02 04:46:03;;;;;;;7.30;3.77;;;10.70;99.90;;;;;;4978216;28;1054497;-80
2022/01/02 04:48:29;;;;;;;7.00;3.97;;;10.70;99.90;;;;;;5017125;28;20226;-79
2022/01/02 04:50:54;;;;;;;6.07;3.80;;;10.60;99.90;;;;;;5016944;28;20322;-80
2022/01/02 04:53:21;;;;;;;7.00;3.90;;;10.60;99.90;;;;;;5017541;28;20635;-79
2022/01/02 04:55:47;;;;;;;7.20;3.50;;;10.70;99.90;;;;;;5016605;28;20283;-79
2022/01/02 04:58:12;;;;;;;5.20;3.40;;;10.60;99.90;;;;;;5015459;28;20185;-79
2022/01/02 05:00:40;;;;;;;5.90;3.83;;;10.60;99.90;;;;;;5015074;28;20177;-79
2022/01/02 05:03:06;;;;;;;9.33;4.60;;;10.60;99.90;;;;;;5016201;28;20228;-79
2022/01/02 05:05:32;;;;;;;8.63;4.23;;;10.60;99.90;;;;;;5016394;28;20224;-79
2022/01/02 05:07:57;;;;;;;6.43;4.17;;;10.60;99.90;;;;;;5016216;28;20227;-80
2022/01/02 05:10:23;;;;;;;6.80;3.67;;;10.60;99.90;;;;;;5016214;28;20185;-79
2022/01/02 05:12:49;;;;;;;8.63;4.40;;;10.60;99.90;;;;;;5016611;28;20181;-79
2022/01/02 05:15:15;;;;;;;7.70;3.53;;;10.60;99.90;;;;;;5016132;28;20686;-77
2022/01/02 05:17:40;;;;;;;6.77;4.20;;;10.60;99.90;;;;;;5017212;28;20181;-78
2022/01/02 05:20:07;;;;;;;5.73;3.83;;;10.60;99.90;;;;;;5015679;28;20173;-80
2022/01/02 05:22:33;;;;;;;8.13;4.07;;;10.60;99.90;;;;;;5016401;28;20643;-79
2022/01/02 05:24:58;;;;;;;6.87;4.27;;;10.60;99.90;;;;;;5016342;28;20252;-79
2022/01/02 05:27:24;;;;;;;7.37;4.20;;;10.60;99.90;;;;;;5015330;28;20207;-79
2022/01/02 05:29:49;;;;;;;7.53;4.50;;;10.60;99.90;;;;;;5016250;28;20183;-79
2022/01/02 05:32:15;;;;;;;11.60;4.83;;;10.60;99.90;;;;;;5016493;28;20203;-79
2022/01/02 05:34:40;;;;;;;8.00;3.93;;;10.60;99.90;;;;;;5016830;28;20599;-79
2022/01/02 05:37:06;;;;;;;6.47;4.50;;;10.60;99.90;;;;;;5016209;28;20197;-79
2022/01/02 05:39:32;;;;;;;15.07;4.37;;;10.60;99.90;;;;;;5016462;28;20181;-79
2022/01/02 05:41:57;;;;;;;9.10;4.40;;;10.50;99.90;;;;;;5016175;28;20216;-79
2022/01/02 05:44:23;;;;;;;7.07;4.43;;;10.50;99.90;;;;;;5014474;28;20189;-79
2022/01/02 05:46:48;;;;;;;8.33;4.37;;;10.60;99.90;;;;;;5016165;28;20613;-79
2022/01/02 05:49:15;;;;;;;6.70;4.17;;;10.50;99.90;;;;;;5015673;28;20212;-79
2022/01/02 05:51:41;;;;;;;7.17;4.60;;;10.50;99.90;;;;;;5016071;28;20189;-79
2022/01/02 05:54:07;;;;;;;9.90;4.63;;;10.50;99.90;;;;;;5015690;28;20173;-79
2022/01/02 05:56:33;;;;;;;6.67;4.30;;;10.50;99.90;;;;;;5013735;28;20193;-79
2022/01/02 05:58:59;;;;;;;7.60;4.43;;;10.50;99.90;;;;;;5015665;28;20242;-80
2022/01/02 06:01:25;;;;;;;7.80;4.47;;;10.50;99.90;;;;;;5016228;28;20196;-79
2022/01/02 06:03:51;;;;;;;8.53;4.90;;;10.50;99.90;;;;;;5014437;28;20211;-79
2022/01/02 06:06:16;;;;;;;6.07;4.37;;;10.50;99.90;;;;;;5016026;28;20212;-79
2022/01/02 06:08:42;;;;;;;10.83;4.70;;;10.50;99.90;;;;;;5015587;28;20169;-80
2022/01/02 06:11:08;;;;;;;8.73;4.10;;;10.50;99.90;;;;;;5014922;28;20181;-80
2022/01/02 06:13:33;;;;;;;7.57;4.47;;;10.50;99.90;;;;;;5015863;28;20187;-79
2022/01/02 06:15:59;;;;;;;6.33;4.50;;;10.60;99.90;;;;;;5014992;28;20303;-79
2022/01/02 06:18:24;;;;;;;10.53;4.50;;;10.40;99.90;;;;;;5015562;28;20246;-80
2022/01/02 06:20:50;;;;;;;6.33;3.97;;;10.50;99.90;;;;;;5016319;28;20173;-78
2022/01/02 06:23:16;;;;;;;11.13;4.70;;;10.50;99.90;;;;;;5019963;28;20173;-79
2022/01/02 06:25:43;;;;;;;9.07;4.20;;;10.40;99.90;;;;;;5020430;28;20197;-79
2022/01/02 06:28:08;;;;;;;12.57;4.63;;;10.40;99.90;;;;;;5019073;28;20216;-80
2022/01/02 06:30:34;;;;;;;8.13;4.67;;;10.40;99.90;;;;;;5019976;28;20185;-80
2022/01/02 06:32:59;;;;;;;7.77;4.97;;;10.40;99.90;;;;;;5020484;28;20234;-79
2022/01/02 06:35:26;;;;;;;8.23;4.57;;;10.40;99.90;;;;;;5019263;28;20717;-80
2022/01/02 06:37:53;;;;;;;6.73;4.90;;;10.40;99.90;;;;;;5020350;28;20636;-80
2022/01/02 06:40:20;;;;;;;7.73;5.13;;;10.40;99.90;;;;;;5019768;28;20260;-79
2022/01/02 06:42:46;;;;;;;7.13;4.70;;;10.40;99.90;;;;;;5019546;28;20173;-80
2022/01/02 06:45:12;;;;;;;8.07;4.60;;;10.50;99.90;;;;;;5017240;28;20181;-80
2022/01/02 06:47:37;;;;;;;8.83;4.50;;;10.50;99.90;;;;;;5019050;28;20589;-79
2022/01/02 06:50:04;;;;;;;9.97;4.77;;;10.50;99.90;;;;;;5019305;28;20537;-79
2022/01/02 06:52:30;;;;;;;7.17;4.43;;;10.40;99.90;;;;;;5017686;28;20184;-78
2022/01/02 06:54:55;;;;;;;5.03;4.03;;;10.50;99.90;;;;;;5017192;28;20620;-79
2022/01/02 06:57:22;;;;;;;6.27;4.13;;;10.50;99.90;;;;;;5017213;28;20197;-79
2022/01/02 06:59:49;;;;;;;6.60;4.43;;;10.50;99.90;;;;;;5018925;28;20173;-79
2022/01/02 07:02:15;;;;;;;7.50;4.80;;;10.50;99.90;;;;;;5017302;28;20263;-79
2022/01/02 07:04:41;;;;;;;10.57;5.60;;;10.50;99.90;;;;;;5019131;28;20188;-79
2022/01/02 07:07:07;;;;;;;7.87;4.37;;;10.50;99.90;;;;;;5018459;28;20208;-79
2022/01/02 07:09:32;;;;;;;7.83;4.77;;;10.50;99.90;;;;;;5016030;28;20183;-81
2022/01/02 07:11:58;;;;;;;9.07;4.83;;;10.50;99.90;;;;;;5015264;28;20177;-81
2022/01/02 07:14:26;;;;;;;6.63;4.03;;;10.50;99.90;;;;;;5015621;28;20209;-80
2022/01/02 07:16:53;;;;;;;7.97;5.03;;;10.50;99.90;;;;;;5015293;28;20232;-81
2022/01/02 07:19:19;;;;;;;7.63;4.67;;;10.50;99.90;;;;;;5016849;28;20658;-81
2022/01/02 07:21:44;;;;;;;8.47;4.47;;;10.50;99.90;;;;;;5015974;28;20181;-81
2022/01/02 07:24:10;;;;;;;6.73;4.40;;;10.50;99.90;;;;;;5017038;28;20604;-81
2022/01/02 07:26:35;;;;;;;8.13;4.27;;;10.50;99.90;;;;;;5016513;28;20199;-81
2022/01/02 07:29:01;;;;;;;9.23;4.63;;;10.60;99.90;;;;;;5017813;28;20181;-81
2022/01/02 07:31:26;;;;;;;8.10;3.90;;;10.60;99.90;;;;;;5017848;28;20200;-81
2022/01/02 07:33:52;;;;;;;6.27;3.90;;;10.60;99.90;;;;;;5016750;28;20291;-81
2022/01/02 07:36:18;;;;;;;8.97;4.70;;;10.60;99.90;;;;;;5017898;28;20220;-81
2022/01/02 07:38:43;;;;;;;6.83;4.30;;;10.60;99.90;;;;;;5018236;28;20177;-81
2022/01/02 07:41:09;;;;;;;6.20;4.00;;;10.60;99.90;;;;;;5017500;28;20181;-81
2022/01/02 07:43:34;;;;;;;7.20;3.90;;;10.60;99.90;;;;;;5018029;28;20181;-80
2022/01/02 07:46:00;;;;;;;7.60;4.07;;;10.60;99.90;;;;;;5017997;28;20253;-80
2022/01/02 07:48:25;;;;;;;7.10;4.00;;;10.60;99.90;;;;;;5016970;28;20312;-80
2022/01/02 07:50:51;;;;;;;9.77;4.23;;;10.70;99.90;;;;;;5015320;28;20226;-81
2022/01/02 07:53:16;;;;;;;6.20;3.93;;;10.70;99.90;;;;;;5016743;28;20174;-80
2022/01/02 07:55:43;;;;;;;7.23;3.90;;;10.70;99.90;;;;;;5014791;28;20258;-80
2022/01/02 07:58:09;;;;;;;6.80;3.80;;;10.70;99.90;;;;;;5014853;28;20181;-79
2022/01/02 08:00:35;;;;;;;7.10;4.20;;;10.70;99.90;;;;;;5015341;28;20591;-80
2022/01/02 08:03:00;;;;;;;6.10;3.97;;;10.70;99.90;;;;;;5015169;28;20173;-80
2022/01/02 08:05:26;;;;;;;7.07;3.90;;;10.70;99.90;;;;;;5015308;28;20280;-80
2022/01/02 08:07:51;;;;;;;6.13;3.77;;;10.70;99.90;;;;;;5015439;28;20207;-81
2022/01/02 08:10:17;;;;;;;7.97;3.83;;;10.70;99.90;;;;;;5016689;28;20228;-80
2022/01/02 08:12:43;;;;;;;8.53;4.30;;;10.70;99.90;;;;;;5016640;28;20181;-80
2022/01/02 08:15:09;;;;;;;6.90;3.53;;;10.70;99.90;;;;;;5016308;28;20193;-80
2022/01/02 08:17:35;;;;;;;7.07;3.73;;;10.70;99.90;;;;;;5015341;28;20177;-80
2022/01/02 08:20:01;;;;;;;6.57;3.43;;;10.70;99.90;;;;;;5017180;28;20168;-79
2022/01/02 08:22:26;;;;;;;4.70;3.53;;;10.70;99.90;;;;;;5016638;28;20173;-80
2022/01/02 08:24:52;;;;;;;8.20;3.93;;;10.70;99.90;;;;;;5016739;28;20180;-80
2022/01/02 08:27:17;;;;;;;4.43;3.20;;;10.70;99.90;;;;;;5017490;28;20721;-80
2022/01/02 08:29:43;;;;;;;7.87;3.80;;;10.70;99.90;;;;;;5017105;28;20212;-80
2022/01/02 08:32:09;;;;;;;6.23;3.53;;;10.70;99.90;;;;;;5017391;28;20255;-80
2022/01/02 08:34:34;;;;;;;7.67;4.07;;;10.80;99.90;;;;;;5016522;28;20205;-80
2022/01/02 08:37:00;;;;;;;4.57;2.90;;;10.70;99.90;;;;;;5016076;28;20188;-80
2022/01/02 08:39:25;;;;;;;7.13;3.33;;;10.80;99.90;;;;;;5016272;28;20185;-80
2022/01/02 08:41:52;;;;;;;4.10;3.00;;;10.80;99.90;;;;;;5016753;28;20188;-80
2022/01/02 08:44:18;;;;;;;6.93;3.47;;;10.80;99.90;;;;;;5016450;28;20169;-79
2022/01/02 08:46:44;;;;;;;4.87;3.13;;;10.80;99.90;;;;;;5016993;28;20315;-79
2022/01/02 08:49:10;;;;;;;4.03;2.77;;;10.80;99.90;;;;;;5017106;28;20204;-79
2022/01/02 08:51:35;;;;;;;3.83;3.00;;;10.90;99.90;;;;;;5017390;28;20222;-79
2022/01/02 08:54:03;;;;;;;3.60;2.80;;;10.80;99.90;;;;;;5017260;28;20172;-80
2022/01/02 08:56:28;;;;;;;6.53;2.97;;;10.90;99.90;;;;;;5021534;22;20599;-77
2022/01/02 08:58:54;;;;;;;4.50;2.90;;;10.90;99.90;;;;;;4994613;28;20181;-77
2022/01/02 09:01:19;;;;;;;3.20;2.67;;;10.90;99.90;;;;;;4993116;28;20182;-77
2022/01/02 09:03:46;;;;;;;3.77;2.50;;;10.90;99.90;;;;;;4993035;28;20620;-77
2022/01/02 09:06:11;;;;;;;3.27;2.57;;;11.00;99.90;;;;;;4994246;28;20197;-77
2022/01/02 09:08:37;;;;;;;8.27;2.93;;;11.00;99.90;;;;;;4994474;28;20169;-77
2022/01/02 09:11:02;;;;;;;4.00;3.30;;;11.00;99.90;;;;;;4992937;28;20169;-77
2022/01/02 09:13:28;;;;;;;4.07;3.07;;;11.00;99.90;;;;;;4994195;28;20185;-78
2022/01/02 09:15:54;;;;;;;5.17;3.40;;;11.00;99.90;;;;;;4993859;28;20767;-77
2022/01/02 09:18:20;;;;;;;4.37;2.80;;;11.00;99.90;;;;;;4993896;28;20656;-77
2022/01/02 09:20:45;;;;;;;4.17;2.73;;;11.00;99.90;;;;;;4992814;28;20177;-77
2022/01/02 09:23:12;;;;;;;13.03;3.40;;;11.00;99.90;;;;;;4992845;28;20174;-77
2022/01/02 09:25:38;;;;;;;6.00;3.80;;;11.00;99.90;;;;;;4994230;28;20305;-77
2022/01/02 09:28:03;;;;;;;5.53;3.03;;;11.10;99.90;;;;;;4992826;28;20185;-77
2022/01/02 09:30:29;;;;;;;4.43;2.87;;;11.10;99.90;;;;;;4994026;28;20173;-77
2022/01/02 09:32:55;;;;;;;5.73;2.97;;;11.00;99.90;;;;;;4992735;28;20181;-77
2022/01/02 09:35:21;;;;;;;4.43;3.33;;;11.00;99.90;;;;;;4993848;28;20190;-77
2022/01/02 09:37:47;;;;;;;4.73;3.20;;;11.10;99.90;;;;;;4994378;28;20197;-77
2022/01/02 09:40:12;;;;;;;4.00;2.87;;;11.10;99.90;;;;;;4994171;28;20285;-77
2022/01/02 09:42:39;;;;;;;4.33;3.13;;;11.10;99.90;;;;;;4993729;28;20201;-77
2022/01/02 09:45:05;;;;;;;6.27;2.90;;;11.00;99.90;;;;;;4993739;28;20176;-78
2022/01/02 09:47:32;;;;;;;4.57;3.20;;;11.00;99.90;;;;;;4993626;28;20197;-78
2022/01/02 09:49:59;;;;;;;2.87;2.50;;;11.10;99.90;;;;;;4992570;28;20178;-78
2022/01/02 09:52:25;;;;;;;5.00;2.77;;;11.10;99.90;;;;;;4992632;28;20249;-78
2022/01/02 09:54:50;;;;;;;4.90;2.70;;;11.10;99.90;;;;;;4993996;28;20193;-78
2022/01/02 09:57:17;;;;;;;3.63;2.73;;;11.10;99.90;;;;;;4995614;28;20198;-78
2022/01/02 09:59:42;;;;;;;4.20;2.80;;;11.20;99.90;;;;;;4998381;28;20518;-78
2022/01/02 10:02:08;;;;;;;4.80;3.17;;;11.20;99.90;;;;;;4997898;28;20177;-78
2022/01/02 10:04:36;;;;;;;6.83;3.60;;;11.30;99.90;;;;;;4997642;28;20189;-78
2022/01/02 10:07:03;;;;;;;4.80;2.77;;;11.30;99.90;;;;;;4996287;28;20204;-78
2022/01/02 10:09:30;;;;;;;5.07;2.97;;;11.40;99.90;;;;;;4997612;28;20173;-75
2022/01/02 10:12:25;;;;;;;4.43;2.63;;;11.40;99.90;;;;;;4997573;28;20255;-75
2022/01/02 10:15:11;;;;;;;5.43;2.47;;;11.40;99.90;;;;;;4990280;28;20206;-75
2022/01/02 10:17:54;;;;;;;5.70;2.73;;;11.40;99.90;;;;;;4997317;28;20335;-75
2022/01/02 10:20:28;;;;;;;3.47;2.37;;;11.40;99.90;;;;;;4996148;28;20223;-75
2022/01/02 10:23:17;;;;;;;6.60;2.70;;;11.40;99.90;;;;;;4997305;28;20168;-75
2022/01/02 10:25:57;;;;;;;4.17;2.60;;;11.40;99.90;;;;;;4997460;28;20186;-73
2022/01/02 10:28:27;;;;;;;3.13;2.30;;;11.40;99.90;;;;;;4997242;28;20264;-75
2022/01/02 10:31:03;;;;;;;6.20;2.27;;;11.90;99.90;;;;;;4996719;28;20726;-75
2022/01/02 10:33:45;;;;;;;3.83;2.33;;;11.50;99.90;;;;;;4997557;28;20169;-75
2022/01/02 10:36:11;;;;;;;7.33;2.47;;;11.50;99.90;;;;;;4997183;28;20256;-75
2022/01/02 10:38:36;;;;;;;3.43;1.87;;;11.60;99.90;;;;;;4996435;28;20177;-76
2022/01/02 10:41:02;;;;;;;5.90;2.33;;;11.80;99.90;;;;;;4997206;28;20590;-75
2022/01/02 10:43:29;;;;;;;3.33;2.03;;;12.00;99.90;;;;;;4995631;28;20268;-75
2022/01/02 10:45:57;;;;;;;4.50;2.50;;;12.00;99.90;;;;;;4995609;28;20573;-75
2022/01/02 10:48:31;;;;;;;5.30;2.20;;;12.10;99.90;;;;;;4996461;28;20331;-75
2022/01/02 10:51:16;;;;;;;5.13;2.50;;;12.20;99.90;;;;;;4996797;28;20181;-75
2022/01/02 10:53:54;;;;;;;5.57;2.50;;;12.30;99.90;;;;;;4996763;28;20237;-75
2022/01/02 10:56:26;;;;;;;6.63;2.50;;;12.60;99.90;;;;;;4996880;28;20238;-75
2022/01/02 10:58:52;;;;;;;5.00;2.43;;;12.70;99.90;;;;;;4996484;28;20228;-75
2022/01/02 11:01:17;;;;;;;5.57;2.70;;;12.80;99.90;;;;;;4995360;28;20177;-75
2022/01/02 11:03:47;;;;;;;6.73;2.77;;;12.80;99.90;;;;;;4996495;28;20188;-75
2022/01/02 11:06:26;;;;;;;6.00;2.47;;;12.90;99.90;;;;;;4996496;28;20197;-77
2022/01/02 11:08:55;;;;;;;5.53;2.70;;;13.00;99.90;;;;;;4997031;28;20161;-77
2022/01/02 11:11:21;;;;;;;8.43;2.73;;;13.00;99.90;;;;;;4996242;28;20181;-78
2022/01/02 11:13:46;;;;;;;5.27;2.67;;;13.10;99.90;;;;;;4996397;28;20664;-77
2022/01/02 11:16:13;;;;;;;6.10;2.80;;;13.00;99.90;;;;;;4994793;28;20209;-77
2022/01/02 11:18:38;;;;;;;5.43;2.73;;;13.00;99.90;;;;;;4996478;28;20178;-77
2022/01/02 11:21:10;;;;;;;4.47;2.83;;;13.20;99.90;;;;;;4994849;28;20181;-77
2022/01/02 11:24:03;;;;;;;5.63;2.40;;;13.20;99.90;;;;;;4994725;28;20161;-77
2022/01/02 11:26:48;;;;;;;5.03;2.60;;;13.20;99.90;;;;;;4995998;28;20276;-77
2022/01/02 11:29:14;;;;;;;5.50;2.77;;;13.20;99.90;;;;;;4995966;28;20174;-77
2022/01/02 11:31:43;;;;;;;6.73;2.73;;;13.20;99.90;;;;;;4996182;28;20174;-77
2022/01/02 11:34:27;;;;;;;5.73;2.27;;;13.30;99.90;;;;;;4996028;28;20646;-77
2022/01/02 11:37:13;;;;;;;6.73;2.90;;;13.30;99.90;;;;;;4996278;28;20193;-77
2022/01/02 11:39:49;;;;;;;7.97;2.63;;;13.20;99.90;;;;;;4995690;28;20684;-77
2022/01/02 11:42:48;;;;;;;5.37;2.63;;;13.20;99.90;;;;;;4994053;28;20177;-77
2022/01/02 11:45:22;;;;;;;4.83;2.43;;;13.20;99.90;;;;;;4963368;28;20189;-77
2022/01/02 11:47:47;;;;;;;4.63;2.60;;;13.20;99.90;;;;;;4996289;28;20523;-74
2022/01/02 11:50:35;;;;;;;6.10;2.50;;;13.30;99.90;;;;;;4994371;28;20174;-75
2022/01/02 11:53:33;;;;;;;4.17;2.10;;;13.20;99.90;;;;;;4995557;28;20165;-74
2022/01/02 11:55:59;;;;;;;5.80;2.53;;;13.20;99.90;;;;;;4994886;28;20715;-75
2022/01/02 11:58:50;;;;;;;7.40;2.80;;;13.10;99.90;;;;;;4995126;28;20170;-75
2022/01/02 12:01:48;;;;;;;8.63;2.63;;;13.10;99.90;;;;;;4988801;28;20192;-75
2022/01/02 12:04:13;;;;;;;7.37;2.63;;;13.20;99.90;;;;;;4995231;28;20177;-74
2022/01/02 12:06:42;;;;;;;6.80;2.70;;;13.20;99.90;;;;;;4993840;28;20190;-75
2022/01/02 12:09:34;;;;;;;4.93;2.57;;;13.20;99.90;;;;;;4995408;28;20248;-75
2022/01/02 12:12:05;;;;;;;5.87;2.70;;;13.20;99.90;;;;;;4995091;28;20158;-75
2022/01/02 12:14:31;;;;;;;7.43;2.47;;;13.10;99.90;;;;;;4994690;28;20297;-75
2022/01/02 12:17:08;;;;;;;8.23;2.67;;;13.10;99.90;;;;;;4994912;28;20218;-75
2022/01/02 12:19:56;;;;;;;5.50;2.57;;;13.10;99.90;;;;;;4994272;28;20209;-75
2022/01/02 12:22:21;;;;;;;6.23;2.67;;;13.10;99.90;;;;;;4993678;28;20272;-75
2022/01/02 12:24:47;;;;;;;7.07;2.50;;;13.10;99.90;;;;;;4995122;28;20252;-75
2022/01/02 12:27:15;;;;;;;9.67;2.70;;;13.10;99.90;;;;;;4994250;28;20228;-75
2022/01/02 12:29:41;;;;;;;7.70;2.43;;;13.10;99.90;;;;;;4995006;28;20192;-75
2022/01/02 12:32:07;;;;;;;6.67;2.43;;;13.10;99.90;;;;;;4993086;28;20182;-75
2022/01/02 12:34:34;;;;;;;3.87;2.40;;;13.00;99.90;;;;;;4993380;28;20226;-75
2022/01/02 12:36:59;;;;;;;9.67;2.70;;;13.00;99.90;;;;;;4993247;28;20189;-75
2022/01/02 12:39:44;;;;;;;7.13;2.40;;;13.00;99.90;;;;;;4994605;28;20166;-75
2022/01/02 12:42:13;;;;;;;6.03;2.50;;;13.00;99.90;;;;;;4993338;28;20654;-74
2022/01/02 12:44:39;;;;;;;3.70;2.27;;;13.00;99.90;;;;;;4993298;28;20181;-75
2022/01/02 12:47:06;;;;;;;6.57;2.70;;;13.00;99.90;;;;;;4992496;28;20205;-75
2022/01/02 12:49:37;;;;;;;7.20;2.87;;;13.00;99.90;;;;;;4994043;28;20188;-75
2022/01/02 12:52:10;;;;;;;7.27;2.17;;;13.00;99.90;;;;;;4994404;28;20170;-75
2022/01/02 12:54:38;;;;;;;7.07;2.30;;;12.90;99.90;;;;;;4994337;28;20189;-75